Ana Sayfa
METAR-TAF:

METAR-TAF

Havaalanları :

Yaoundé, Kamerun

Enlem: 03-50N, Boylam: 011-31E, yükseklik: 751 m

Güncel hava durumu gözlemi

Rapor saat 05:00 UTC de 38 dakika önce yapıldı.
Sakin rüzgar
Sıcaklık 23°C
Nem 94%
Basınç 1015 hPa
Görüş mesafesi: 2000 m
600 ft yükseklikte parçalı çok bulutlu
Pus

METAR: FKYS 290500Z 00000KT 2000 BR BKN006 23/22 Q1015 TEMPO 1000 BR

Saat: 06:38 (05:38 UTC)

Tahmin

Rapor saat 23:00 UTC de 6 saat ve 38 dakika önce yapıldı.
Ayın 29'si saat 00 UTC'den ayın 29'si saat 24 UTC'ye kadar geçerli Tahmin
Rüzgar batıdan 5 kt
Görüş mesafesi: 2000 m
600 ft yükseklikte parçalı çok bulutlu
Pus
Geçici
ayın 29'si saat 04 UTC'den ayın 29'si saat 08 UTC'ye kadar
Görüş mesafesi: 1400 m
Pus

TAF: FKYS 282300Z 2900/2924 26005KT 2000 BR BKN006 TEMPO 2904/2908 1400 BR

4.000'den fazla havaalanı için hava durumu gözlemleri ve tahminleri (METAR ve TAF raporları).

Kullanılabilir istasyonlar harita üzerinde sarı ve kırmızı noktalarla gösterilir.

İstasyonun adını görmek için fareyi noktanın üzerinde gezdirin.

Sonrasında hava gözlem ve tahminlerini görmek için tıklayın.

Haritayı değiştirmek için: yaklaştırmak için siyah artı işaretli yeşil düğmeye ve uzaklaştırmak için de eksi işaretli düğmeye hızla tıklayın; bitişik haritalar için yeşil okları kullanın.


METAR-TAF: